F/V Cyriaque — FHDS — position and weather

sailwx.info

Track history (hours):
 
Tides and Currents Weather Stations Pressure Air Temp Water Temp Dewpoint Dewpoint Depression Visibility Wind Speed Wind Dir Waves Ship Positions

F/V Cyriaque

Last reported at 2018-Feb-16 19:31 UTC. Time now 2018-Feb-20 11:42 UTC.
Position N 44°42' W 001°43'.

Length 20 m; draft 3.5 m.

Type: Fishing. MMSI: 228235000.

Date/timePositionNaut miles runAvg speedWind from/ knotsBaromVisibWave heightAir tempDewpointWater temp
2018-Feb-16 19:31N 44°42' W 001°43'2 3.2
2018-Feb-16 19:03N 44°41' W 001°42'1 3.2
2018-Feb-16 18:46N 44°40' W 001°42'1 5.1
2018-Feb-16 18:30N 44°38' W 001°41'4 7.2
2018-Feb-16 18:00N 44°35' W 001°40'3 2.4
2018-Feb-16 16:58N 44°32' W 001°40'3 2.9
2018-Feb-16 15:59N 44°30' W 001°39'23 1.7
2018-Feb-16 02:18N 44°07' W 001°37'1 3.5
2018-Feb-16 02:00N 44°08' W 001°37'3 6.3
2018-Feb-16 01:30N 44°11' W 001°37'35 1.8
2018-Feb-15 06:19N 43°36' W 001°38'2 8.1
2018-Feb-15 06:00N 43°34' W 001°39'4 8.2
2018-Feb-15 05:30N 43°30' W 001°39'4 8.2
2018-Feb-15 05:00N 43°26' W 001°40'3 5.1
2018-Feb-15 04:29N 43°23' W 001°40'0 0.0
2018-Feb-13 16:54N 43°23' W 001°40'2 5.1
2018-Feb-13 16:31N 43°24' W 001°42'4 8.0
2018-Feb-13 16:00N 43°23' W 001°47'0 0.6
2018-Feb-13 15:30N 43°22' W 001°47'3 6.4
2018-Feb-13 15:01N 43°24' W 001°44'3 0.1
2018-Feb-11 23:18N 43°23' W 001°40'0 0.3
2018-Feb-11 23:01N 43°23' W 001°40'0 0.0
2018-Feb-11 22:20N 43°23' W 001°40'0 0.0
2018-Feb-11 21:58N 43°23' W 001°40'0 0.0
2018-Feb-11 21:21N 43°23' W 001°40'0 0.0
2018-Feb-11 21:00N 43°23' W 001°40'2 4.3
2018-Feb-11 20:30N 43°25' W 001°40'4 8.2
2018-Feb-11 20:00N 43°29' W 001°39'4 8.0
2018-Feb-11 19:30N 43°33' W 001°37'57 5.0
2018-Feb-11 08:05N 44°29' W 001°24'0 3.2
2018-Feb-11 07:57N 44°29' W 001°24'1 3.2
2018-Feb-11 07:30N 44°31' W 001°24'2 3.3
2018-Feb-11 07:00N 44°32' W 001°24'1 2.0
2018-Feb-11 06:30N 44°33' W 001°23'1 2.6
2018-Feb-11 05:59N 44°32' W 001°23'2 3.6
2018-Feb-11 05:30N 44°30' W 001°24'3 3.6
2018-Feb-11 04:42N 44°27' W 001°24'1 3.5
2018-Feb-11 04:29N 44°26' W 001°24'2 3.4
2018-Feb-11 03:50N 44°24' W 001°23'1 0.2
2018-Feb-10 23:21N 44°25' W 001°24'5 3.1
2018-Feb-10 21:51N 44°29' W 001°24'1 3.2
2018-Feb-10 21:30N 44°30' W 001°24'2 3.3
2018-Feb-10 20:59N 44°32' W 001°23'0 1.0
2018-Feb-10 20:30N 44°32' W 001°23'1 2.7
2018-Feb-10 20:01N 44°31' W 001°23'2 3.6
2018-Feb-10 19:31N 44°29' W 001°24'2 3.6
2018-Feb-10 18:54N 44°27' W 001°24'1 3.6
2018-Feb-10 18:30N 44°26' W 001°24'4 0.6
2018-Feb-10 12:21N 44°29' W 001°24'1 3.3
2018-Feb-10 12:00N 44°31' W 001°24'2 2.9
2018-Feb-10 11:26N 44°31' W 001°21'2 3.8
2018-Feb-10 11:00N 44°29' W 001°20'2 3.3
2018-Feb-10 10:30N 44°28' W 001°20'2 0.3
2018-Feb-10 02:53N 44°26' W 001°21'2 3.4
2018-Feb-10 02:24N 44°28' W 001°21'1 3.2
2018-Feb-10 02:00N 44°29' W 001°21'2 3.5
2018-Feb-10 01:31N 44°30' W 001°23'1 2.9
2018-Feb-10 01:00N 44°29' W 001°25'2 3.2
2018-Feb-10 00:30N 44°28' W 001°25'3 3.2
2018-Feb-09 23:36N 44°25' W 001°26'2 3.1
2018-Feb-09 22:56N 44°23' W 001°26'1 3.0
2018-Feb-09 22:40N 44°22' W 001°26'6 0.1
2018-Feb-07 23:11N 44°28' W 001°25'1 3.6
2018-Feb-07 23:00N 44°29' W 001°25'0 0.5
2018-Feb-07 22:00N 44°29' W 001°24'0 0.5
2018-Feb-07 21:31N 44°29' W 001°25'2 0.2
2018-Feb-07 09:30N 44°29' W 001°22'1 2.7
2018-Feb-07 09:00N 44°28' W 001°22'2 3.4
2018-Feb-07 08:27N 44°26' W 001°23'2 3.4
2018-Feb-07 08:00N 44°25' W 001°23'50 5.9
2018-Feb-06 23:25N 43°35' W 001°37'3 7.1
2018-Feb-06 23:00N 43°33' W 001°38'4 7.2
2018-Feb-06 22:28N 43°29' W 001°39'  
Track history (hours):
 
Tides and Currents Weather Stations Pressure Air Temp Water Temp Dewpoint Dewpoint Depression Visibility Wind Speed Wind Dir Waves Ship Positions

F/V Cyriaque

Last reported at 2018-Feb-16 19:31 UTC. Time now 2018-Feb-20 11:42 UTC.
Position N 44°42' W 001°43'.

Length 20 m; draft 3.5 m.

Type: Fishing. MMSI: 228235000.

Date/timePositionNaut miles runAvg speedWind from/ knotsBaromVisibWave heightAir tempDewpointWater temp
2018-Feb-16 19:31N 44°42' W 001°43'2 3.2
2018-Feb-16 19:03N 44°41' W 001°42'1 3.2
2018-Feb-16 18:46N 44°40' W 001°42'1 5.1
2018-Feb-16 18:30N 44°38' W 001°41'4 7.2
2018-Feb-16 18:00N 44°35' W 001°40'3 2.4
2018-Feb-16 16:58N 44°32' W 001°40'3 2.9
2018-Feb-16 15:59N 44°30' W 001°39'23 1.7
2018-Feb-16 02:18N 44°07' W 001°37'1 3.5
2018-Feb-16 02:00N 44°08' W 001°37'3 6.3
2018-Feb-16 01:30N 44°11' W 001°37'35 1.8
2018-Feb-15 06:19N 43°36' W 001°38'2 8.1
2018-Feb-15 06:00N 43°34' W 001°39'4 8.2
2018-Feb-15 05:30N 43°30' W 001°39'4 8.2
2018-Feb-15 05:00N 43°26' W 001°40'3 5.1
2018-Feb-15 04:29N 43°23' W 001°40'0 0.0
2018-Feb-13 16:54N 43°23' W 001°40'2 5.1
2018-Feb-13 16:31N 43°24' W 001°42'4 8.0
2018-Feb-13 16:00N 43°23' W 001°47'0 0.6
2018-Feb-13 15:30N 43°22' W 001°47'3 6.4
2018-Feb-13 15:01N 43°24' W 001°44'3 0.1
2018-Feb-11 23:18N 43°23' W 001°40'0 0.3
2018-Feb-11 23:01N 43°23' W 001°40'0 0.0
2018-Feb-11 22:20N 43°23' W 001°40'0 0.0
2018-Feb-11 21:58N 43°23' W 001°40'0 0.0
2018-Feb-11 21:21N 43°23' W 001°40'0 0.0
2018-Feb-11 21:00N 43°23' W 001°40'2 4.3
2018-Feb-11 20:30N 43°25' W 001°40'4 8.2
2018-Feb-11 20:00N 43°29' W 001°39'4 8.0
2018-Feb-11 19:30N 43°33' W 001°37'57 5.0
2018-Feb-11 08:05N 44°29' W 001°24'0 3.2
2018-Feb-11 07:57N 44°29' W 001°24'1 3.2
2018-Feb-11 07:30N 44°31' W 001°24'2 3.3
2018-Feb-11 07:00N 44°32' W 001°24'1 2.0
2018-Feb-11 06:30N 44°33' W 001°23'1 2.6
2018-Feb-11 05:59N 44°32' W 001°23'2 3.6
2018-Feb-11 05:30N 44°30' W 001°24'3 3.6
2018-Feb-11 04:42N 44°27' W 001°24'1 3.5
2018-Feb-11 04:29N 44°26' W 001°24'2 3.4
2018-Feb-11 03:50N 44°24' W 001°23'1 0.2
2018-Feb-10 23:21N 44°25' W 001°24'5 3.1
2018-Feb-10 21:51N 44°29' W 001°24'1 3.2
2018-Feb-10 21:30N 44°30' W 001°24'2 3.3
2018-Feb-10 20:59N 44°32' W 001°23'0 1.0
2018-Feb-10 20:30N 44°32' W 001°23'1 2.7
2018-Feb-10 20:01N 44°31' W 001°23'2 3.6
2018-Feb-10 19:31N 44°29' W 001°24'2 3.6
2018-Feb-10 18:54N 44°27' W 001°24'1 3.6
2018-Feb-10 18:30N 44°26' W 001°24'4 0.6
2018-Feb-10 12:21N 44°29' W 001°24'1 3.3
2018-Feb-10 12:00N 44°31' W 001°24'2 2.9
2018-Feb-10 11:26N 44°31' W 001°21'2 3.8
2018-Feb-10 11:00N 44°29' W 001°20'2 3.3
2018-Feb-10 10:30N 44°28' W 001°20'2 0.3
2018-Feb-10 02:53N 44°26' W 001°21'2 3.4
2018-Feb-10 02:24N 44°28' W 001°21'1 3.2
2018-Feb-10 02:00N 44°29' W 001°21'2 3.5
2018-Feb-10 01:31N 44°30' W 001°23'1 2.9
2018-Feb-10 01:00N 44°29' W 001°25'2 3.2
2018-Feb-10 00:30N 44°28' W 001°25'3 3.2
2018-Feb-09 23:36N 44°25' W 001°26'2 3.1
2018-Feb-09 22:56N 44°23' W 001°26'1 3.0
2018-Feb-09 22:40N 44°22' W 001°26'6 0.1
2018-Feb-07 23:11N 44°28' W 001°25'1 3.6
2018-Feb-07 23:00N 44°29' W 001°25'0 0.5
2018-Feb-07 22:00N 44°29' W 001°24'0 0.5
2018-Feb-07 21:31N 44°29' W 001°25'2 0.2
2018-Feb-07 09:30N 44°29' W 001°22'1 2.7
2018-Feb-07 09:00N 44°28' W 001°22'2 3.4
2018-Feb-07 08:27N 44°26' W 001°23'2 3.4
2018-Feb-07 08:00N 44°25' W 001°23'50 5.9
2018-Feb-06 23:25N 43°35' W 001°37'3 7.1
2018-Feb-06 23:00N 43°33' W 001°38'4 7.2
2018-Feb-06 22:28N 43°29' W 001°39'  

Dump ship's entire track history